Time;durP1;ratioP1;P1;durP2;ratioP2;P2;SDS_P1;SDS_P2;PMS_P1;PMS_P2;Temp;Humidity;BMP_temperature;BMP_pressure;BME280_temperature;BME280_humidity;BME280_pressure;Samples;Min_cycle;Max_cycle;Signal;HPM_P1;HPM_P2
2023/06/26 00:01:29;;;;;;;0.30;0.30;;;23.30;99.90;;;;;;5114002;28;20398;-72
2023/06/26 00:03:55;;;;;;;0.75;0.52;;;23.20;99.90;;;;;;5113958;28;20047;-71
2023/06/26 00:06:23;;;;;;;0.30;0.30;;;23.20;99.90;;;;;;5114286;28;20052;-71
2023/06/26 00:08:49;;;;;;;0.30;0.30;;;23.20;99.90;;;;;;5114230;28;20096;-71
2023/06/26 00:11:15;;;;;;;0.40;0.40;;;23.10;99.90;;;;;;5114058;28;20040;-71
2023/06/26 00:13:41;;;;;;;1.40;1.30;;;23.10;99.90;;;;;;5113967;28;20126;-72
2023/06/26 00:16:07;;;;;;;0.40;0.40;;;23.00;99.90;;;;;;5113801;28;20040;-72
2023/06/26 00:18:33;;;;;;;0.30;0.30;;;23.00;99.90;;;;;;5113876;28;20374;-72
2023/06/26 00:20:58;;;;;;;0.30;0.30;;;23.00;99.90;;;;;;5113801;28;20035;-71
2023/06/26 00:23:24;;;;;;;0.40;0.40;;;22.90;99.90;;;;;;5113816;28;20047;-73
2023/06/26 00:25:49;;;;;;;0.43;0.43;;;22.90;99.90;;;;;;5113835;28;20463;-72
2023/06/26 00:28:15;;;;;;;0.63;0.63;;;22.90;99.90;;;;;;5113724;28;20080;-72
2023/06/26 00:30:41;;;;;;;0.30;0.30;;;22.80;99.90;;;;;;5112484;28;20047;-71
2023/06/26 00:33:06;;;;;;;0.57;0.57;;;22.80;99.90;;;;;;5113784;28;20047;-72
2023/06/26 00:35:32;;;;;;;0.30;0.30;;;22.80;99.90;;;;;;5113707;28;20043;-72
2023/06/26 00:37:57;;;;;;;0.30;0.30;;;22.80;99.90;;;;;;5113674;28;20078;-71
2023/06/26 00:40:23;;;;;;;0.30;0.30;;;22.80;99.90;;;;;;5113672;28;20428;-72
2023/06/26 00:42:50;;;;;;;0.33;0.33;;;22.70;99.90;;;;;;5113661;28;20047;-72
2023/06/26 00:45:16;;;;;;;0.30;0.30;;;22.70;99.90;;;;;;5113612;28;20047;-72
2023/06/26 00:47:41;;;;;;;0.30;0.30;;;22.70;99.90;;;;;;5113976;28;20486;-72
2023/06/26 00:50:08;;;;;;;0.93;0.53;;;22.60;99.90;;;;;;5113594;28;20546;-72
2023/06/26 00:52:33;;;;;;;;;;;22.60;99.90;;;;;;5114300;28;20050;-73
2023/06/26 00:54:59;;;;;;;0.30;0.30;;;22.60;99.90;;;;;;5113451;28;19998;-71
2023/06/26 00:57:25;;;;;;;0.30;0.30;;;22.60;99.90;;;;;;5113462;28;20036;-72
2023/06/26 00:59:51;;;;;;;0.40;0.40;;;22.50;99.90;;;;;;5113440;28;20111;-72
2023/06/26 01:02:19;;;;;;;0.57;0.57;;;22.50;99.90;;;;;;5113458;28;20456;-71
2023/06/26 01:04:51;;;;;;;0.30;0.30;;;22.50;99.90;;;;;;5113306;28;20060;-72
2023/06/26 01:07:19;;;;;;;0.30;0.30;;;22.50;99.90;;;;;;5113614;28;20070;-73
2023/06/26 01:09:47;;;;;;;0.73;0.73;;;22.50;99.90;;;;;;5113384;28;20065;-73
2023/06/26 01:12:14;;;;;;;0.30;0.30;;;22.40;99.90;;;;;;5116674;28;20039;-72
2023/06/26 01:14:39;;;;;;;0.20;0.20;;;22.40;99.90;;;;;;5115575;28;20450;-71
2023/06/26 01:17:07;;;;;;;0.30;0.30;;;22.40;99.90;;;;;;5117205;28;20078;-72
2023/06/26 01:19:33;;;;;;;0.75;0.57;;;22.30;99.90;;;;;;5117019;28;20039;-74
2023/06/26 01:22:15;;;;;;;;;;;22.30;99.90;;;;;;5117220;28;20079;-72
2023/06/26 01:24:54;;;;;;;0.50;0.50;;;22.30;99.90;;;;;;5116852;28;19923;-72
2023/06/26 01:27:22;;;;;;;0.43;0.43;;;22.30;99.90;;;;;;5117073;28;20039;-71
2023/06/26 01:29:50;;;;;;;0.47;0.47;;;22.20;99.90;;;;;;5116977;28;20055;-72
2023/06/26 01:32:15;;;;;;;2.38;0.40;;;22.20;99.90;;;;;;5116722;28;20140;-71
2023/06/26 01:34:43;;;;;;;0.30;0.30;;;22.20;99.90;;;;;;5116991;28;20486;-72
2023/06/26 01:37:08;;;;;;;0.40;0.40;;;22.20;99.90;;;;;;5116864;28;20087;-72
2023/06/26 01:39:34;;;;;;;0.57;0.57;;;22.20;99.90;;;;;;5116586;28;20488;-72
2023/06/26 01:42:00;;;;;;;0.40;0.40;;;22.10;99.90;;;;;;5117193;28;20397;-72
2023/06/26 01:44:32;;;;;;;0.30;0.30;;;22.10;99.90;;;;;;5116428;28;20039;-72
2023/06/26 01:47:03;;;;;;;0.30;0.30;;;22.10;99.90;;;;;;5116083;28;20274;-72
2023/06/26 01:50:05;;;;;;;0.20;0.20;;;22.10;99.90;;;;;;5116307;27;20042;-72
2023/06/26 01:53:01;;;;;;;0.30;0.30;;;22.00;99.90;;;;;;5116737;28;20036;-72
2023/06/26 01:55:42;;;;;;;0.30;0.30;;;22.00;99.90;;;;;;5116322;28;20042;-71
2023/06/26 01:58:09;;;;;;;0.50;0.50;;;21.90;99.90;;;;;;5116049;28;20420;-72
2023/06/26 02:00:36;;;;;;;0.30;0.30;;;21.90;99.90;;;;;;5116026;28;20039;-71
2023/06/26 02:03:03;;;;;;;0.30;0.30;;;21.90;99.90;;;;;;5116041;27;20044;-71
2023/06/26 02:05:30;;;;;;;0.47;0.47;;;21.90;99.90;;;;;;5115558;27;20497;-71
2023/06/26 02:07:56;;;;;;;0.43;0.40;;;21.80;99.90;;;;;;5114883;28;20044;-71
2023/06/26 02:10:22;;;;;;;0.30;0.30;;;21.80;99.90;;;;;;5115955;28;20055;-71
2023/06/26 02:12:47;;;;;;;0.40;0.40;;;21.80;99.90;;;;;;5116030;28;20046;-72
2023/06/26 02:15:13;;;;;;;0.40;0.40;;;21.80;99.90;;;;;;5115727;28;20075;-72
2023/06/26 02:17:38;;;;;;;0.50;0.50;;;21.70;99.90;;;;;;5115782;28;20036;-71
2023/06/26 02:20:05;;;;;;;0.67;0.67;;;21.70;99.90;;;;;;5115747;28;20039;-71
2023/06/26 02:22:31;;;;;;;0.30;0.30;;;21.60;99.90;;;;;;5114485;28;20047;-72
2023/06/26 02:24:57;;;;;;;0.80;0.80;;;21.60;99.90;;;;;;5114651;28;20363;-71
2023/06/26 02:27:22;;;;;;;0.40;0.40;;;21.60;99.90;;;;;;5115634;28;20044;-71
2023/06/26 02:29:48;;;;;;;0.30;0.30;;;21.60;99.90;;;;;;5115413;28;20040;-71
2023/06/26 02:32:14;;;;;;;0.30;0.30;;;21.50;99.90;;;;;;5115966;28;20043;-71
2023/06/26 02:34:39;;;;;;;0.60;0.60;;;21.50;99.90;;;;;;5115863;28;20455;-72
2023/06/26 02:37:07;;;;;;;1.07;1.03;;;21.50;99.90;;;;;;5115384;28;20546;-72
2023/06/26 02:39:36;;;;;;;0.20;0.20;;;21.50;99.90;;;;;;5115448;28;20051;-72
2023/06/26 02:42:02;;;;;;;0.30;0.30;;;21.50;99.90;;;;;;5115210;28;20074;-72
2023/06/26 02:44:28;;;;;;;0.20;0.20;;;21.50;99.90;;;;;;5115201;28;20094;-72
2023/06/26 02:46:54;;;;;;;0.20;0.20;;;21.40;99.90;;;;;;5115202;28;20100;-72
2023/06/26 02:49:20;;;;;;;0.30;0.30;;;21.40;99.90;;;;;;5115005;28;20468;-72
2023/06/26 02:51:45;;;;;;;0.40;0.40;;;21.40;99.90;;;;;;5114842;28;20042;-71
2023/06/26 02:54:11;;;;;;;0.50;0.50;;;21.40;99.90;;;;;;5115033;28;20032;-70
2023/06/26 02:56:37;;;;;;;0.50;0.50;;;21.40;99.90;;;;;;5115304;28;20094;-71
2023/06/26 02:59:02;;;;;;;0.35;0.35;;;21.30;99.90;;;;;;5114822;28;20044;-71
2023/06/26 03:01:28;;;;;;;0.30;0.30;;;21.30;99.90;;;;;;5114832;28;20051;-71
2023/06/26 03:03:55;;;;;;;0.50;0.50;;;21.30;99.90;;;;;;5115147;28;20051;-72
2023/06/26 03:06:21;;;;;;;0.30;0.30;;;21.30;99.90;;;;;;5114466;28;20048;-72
2023/06/26 03:08:46;;;;;;;0.73;0.73;;;21.30;99.90;;;;;;5114607;28;20467;-71
2023/06/26 03:11:12;;;;;;;0.87;0.40;;;21.30;99.90;;;;;;5114698;28;20044;-72
2023/06/26 03:13:37;;;;;;;0.30;0.30;;;21.20;99.90;;;;;;5114616;28;20040;-72
2023/06/26 03:16:04;;;;;;;0.30;0.30;;;21.30;99.90;;;;;;5114689;28;20044;-71
2023/06/26 03:18:30;;;;;;;0.30;0.30;;;21.20;99.90;;;;;;5114392;28;20035;-71
2023/06/26 03:20:56;;;;;;;0.30;0.30;;;21.20;99.90;;;;;;5114941;28;20040;-72
2023/06/26 03:23:23;;;;;;;0.30;0.30;;;21.20;99.90;;;;;;5114588;28;20047;-71
2023/06/26 03:25:49;;;;;;;;;;;21.20;99.90;;;;;;5115064;28;20403;-72
2023/06/26 03:28:15;;;;;;;0.30;0.30;;;21.30;99.90;;;;;;5114298;28;19978;-71
2023/06/26 03:30:40;;;;;;;0.20;0.20;;;21.20;99.90;;;;;;5114641;28;20040;-73
2023/06/26 03:33:06;;;;;;;0.20;0.20;;;21.20;99.90;;;;;;5114285;28;20364;-71
2023/06/26 03:35:32;;;;;;;0.20;0.20;;;21.20;99.90;;;;;;5114418;28;20036;-71
2023/06/26 03:37:58;;;;;;;0.30;0.30;;;21.20;99.90;;;;;;5114329;28;20046;-72
2023/06/26 03:40:24;;;;;;;0.63;0.50;;;21.20;99.90;;;;;;5114614;28;20375;-72
2023/06/26 03:42:50;;;;;;;0.43;0.43;;;21.20;99.90;;;;;;5114168;28;20046;-71
2023/06/26 03:45:15;;;;;;;0.30;0.30;;;21.20;99.90;;;;;;5114213;28;20040;-71
2023/06/26 03:47:41;;;;;;;0.30;0.30;;;21.20;99.90;;;;;;5114076;28;20467;-71
2023/06/26 03:50:07;;;;;;;0.43;0.43;;;21.20;99.90;;;;;;5114126;28;20371;-72
2023/06/26 03:52:33;;;;;;;0.30;0.30;;;21.20;99.90;;;;;;5114152;28;20559;-72
2023/06/26 03:54:59;;;;;;;0.20;0.20;;;21.20;99.90;;;;;;5114136;28;20119;-71
2023/06/26 03:57:24;;;;;;;0.40;0.40;;;21.20;99.90;;;;;;5114120;28;20039;-72
2023/06/26 03:59:51;;;;;;;0.30;0.30;;;21.20;99.90;;;;;;5113992;28;20123;-72
2023/06/26 04:02:17;;;;;;;0.30;0.30;;;21.20;99.90;;;;;;5112974;28;20039;-72
2023/06/26 04:04:42;;;;;;;0.30;0.30;;;21.20;99.90;;;;;;5114014;28;20139;-72
2023/06/26 04:07:09;;;;;;;0.50;0.50;;;21.30;99.90;;;;;;5114023;28;20050;-71
2023/06/26 04:09:34;;;;;;;0.52;0.50;;;21.30;99.90;;;;;;5113858;28;20110;-71
2023/06/26 04:12:00;;;;;;;0.40;0.40;;;21.30;99.90;;;;;;5113626;28;20075;-73
2023/06/26 04:14:26;;;;;;;0.50;0.50;;;21.40;99.90;;;;;;5113842;28;20040;-72
2023/06/26 04:16:51;;;;;;;0.40;0.40;;;21.50;99.90;;;;;;5114538;28;20131;-71
2023/06/26 04:19:17;;;;;;;0.20;0.20;;;21.50;99.90;;;;;;5114067;28;20035;-71
2023/06/26 04:21:43;;;;;;;0.30;0.30;;;21.50;99.90;;;;;;5113837;28;20395;-71
2023/06/26 04:24:08;;;;;;;0.30;0.30;;;21.60;99.90;;;;;;5113789;28;20039;-72
2023/06/26 04:26:34;;;;;;;1.40;1.30;;;21.60;99.90;;;;;;5113778;28;20082;-71
2023/06/26 04:29:00;;;;;;;0.30;0.30;;;21.60;99.90;;;;;;5113578;28;20035;-72
2023/06/26 04:31:26;;;;;;;0.77;0.77;;;21.60;99.90;;;;;;5113788;28;20035;-71
2023/06/26 04:33:54;;;;;;;0.57;0.57;;;21.70;99.90;;;;;;5113521;28;20464;-71
2023/06/26 04:36:20;;;;;;;0.40;0.40;;;21.80;99.90;;;;;;5113483;28;20035;-71
2023/06/26 04:38:48;;;;;;;0.30;0.30;;;21.80;99.90;;;;;;5113702;28;20085;-72
2023/06/26 04:41:14;;;;;;;0.20;0.20;;;21.90;99.90;;;;;;5113678;28;20422;-72
2023/06/26 04:43:39;;;;;;;0.65;0.40;;;21.90;99.90;;;;;;5113575;28;20092;-71
2023/06/26 04:46:05;;;;;;;0.40;0.40;;;22.00;99.90;;;;;;5115758;28;20032;-71
2023/06/26 04:48:32;;;;;;;0.40;0.40;;;22.00;99.90;;;;;;5117471;28;20043;-72
2023/06/26 04:50:58;;;;;;;0.68;0.60;;;22.00;99.90;;;;;;5117625;28;20123;-72
2023/06/26 04:53:24;;;;;;;;;;;22.00;99.90;;;;;;5117978;28;20043;-72
2023/06/26 04:55:51;;;;;;;1.00;0.90;;;22.00;99.90;;;;;;5117360;28;19939;-71
2023/06/26 04:58:17;;;;;;;0.30;0.30;;;22.00;99.90;;;;;;5117255;28;20418;-72
2023/06/26 05:00:43;;;;;;;0.30;0.30;;;22.00;99.90;;;;;;5117026;28;20032;-72
2023/06/26 05:03:12;;;;;;;0.40;0.40;;;22.00;99.90;;;;;;5117201;28;20040;-71
2023/06/26 05:05:38;;;;;;;0.60;0.60;;;22.10;99.90;;;;;;5116800;28;20103;-72
2023/06/26 05:08:21;;;;;;;5.13;1.50;;;22.00;99.90;;;;;;5117091;28;20131;-72
2023/06/26 05:10:47;;;;;;;0.30;0.30;;;22.00;99.90;;;;;;5117091;28;20099;-72
2023/06/26 05:13:15;;;;;;;0.30;0.30;;;22.10;99.90;;;;;;5115858;28;20126;-71
2023/06/26 05:15:42;;;;;;;0.30;0.30;;;22.20;99.90;;;;;;5117382;28;20088;-72
2023/06/26 05:18:08;;;;;;;0.50;0.50;;;22.30;99.90;;;;;;5117057;28;20387;-72
2023/06/26 05:20:35;;;;;;;0.70;0.70;;;22.40;99.90;;;;;;5116013;28;20100;-71
2023/06/26 05:23:02;;;;;;;0.28;0.28;;;22.60;99.90;;;;;;5116882;28;20051;-72
2023/06/26 05:25:29;;;;;;;0.50;0.50;;;22.80;99.90;;;;;;5116731;27;20043;-71
2023/06/26 05:27:55;;;;;;;0.40;0.40;;;22.90;99.90;;;;;;5116653;28;20039;-72
2023/06/26 05:30:21;;;;;;;0.47;0.47;;;23.00;99.90;;;;;;5116715;28;20044;-71
2023/06/26 05:32:48;;;;;;;0.40;0.40;;;22.90;99.90;;;;;;5116567;28;20040;-72
2023/06/26 05:35:14;;;;;;;0.40;0.40;;;22.90;99.90;;;;;;5116538;28;20040;-71
2023/06/26 05:37:41;;;;;;;0.30;0.30;;;22.70;99.90;;;;;;5116477;28;20472;-71
2023/06/26 05:40:08;;;;;;;0.50;0.50;;;22.70;99.90;;;;;;5116474;28;20050;-71
2023/06/26 05:42:33;;;;;;;;;;;22.70;99.90;;;;;;5116971;28;20031;-71
2023/06/26 05:44:59;;;;;;;0.30;0.30;;;22.60;99.90;;;;;;5116767;28;19921;-71
2023/06/26 05:47:24;;;;;;;0.30;0.30;;;22.60;99.90;;;;;;5116297;28;20050;-71
2023/06/26 05:49:50;;;;;;;0.30;0.30;;;22.60;99.90;;;;;;5116249;28;20043;-71
2023/06/26 05:52:16;;;;;;;1.30;0.80;;;22.70;99.90;;;;;;5116289;28;20096;-71
2023/06/26 05:54:42;;;;;;;0.40;0.40;;;22.60;99.90;;;;;;5116254;28;20044;-72
2023/06/26 05:57:08;;;;;;;0.30;0.30;;;22.60;99.90;;;;;;5115890;28;20032;-73
2023/06/26 05:59:36;;;;;;;0.28;0.28;;;22.60;99.90;;;;;;5116136;28;20043;-72
2023/06/26 06:02:02;;;;;;;0.30;0.30;;;22.60;99.90;;;;;;5116065;28;20040;-71
2023/06/26 06:04:28;;;;;;;0.30;0.30;;;22.50;99.90;;;;;;5115668;28;20043;-71
2023/06/26 06:06:53;;;;;;;0.30;0.30;;;22.40;99.90;;;;;;5115749;28;20596;-72
2023/06/26 06:09:19;;;;;;;0.40;0.40;;;22.30;99.90;;;;;;5114597;28;20027;-72
2023/06/26 06:11:45;;;;;;;0.30;0.30;;;22.40;99.90;;;;;;5116116;28;20028;-71
2023/06/26 06:14:10;;;;;;;0.40;0.40;;;22.50;99.90;;;;;;5116289;28;20117;-72
2023/06/26 06:16:36;;;;;;;0.30;0.30;;;22.70;99.90;;;;;;5115943;28;20372;-71
2023/06/26 06:19:03;;;;;;;0.30;0.30;;;23.00;99.90;;;;;;5115847;28;20035;-72
2023/06/26 06:21:28;;;;;;;0.40;0.40;;;23.20;99.90;;;;;;5115596;28;20043;-72
2023/06/26 06:23:54;;;;;;;0.33;0.33;;;23.30;99.90;;;;;;5115615;28;20047;-71
2023/06/26 06:26:23;;;;;;;0.30;0.30;;;23.30;99.90;;;;;;5115607;28;20036;-71
2023/06/26 06:28:49;;;;;;;0.30;0.30;;;23.30;99.90;;;;;;5115490;28;20032;-71
2023/06/26 06:31:14;;;;;;;0.30;0.30;;;23.30;99.90;;;;;;5115637;28;20043;-72
2023/06/26 06:33:40;;;;;;;0.33;0.33;;;23.20;99.90;;;;;;5115629;28;20050;-71
2023/06/26 06:36:06;;;;;;;0.30;0.30;;;23.30;99.90;;;;;;5115400;28;20032;-72
2023/06/26 06:38:31;;;;;;;2.37;1.07;;;23.50;99.90;;;;;;5114031;28;20047;-72
2023/06/26 06:40:57;;;;;;;0.63;0.53;;;23.40;99.90;;;;;;5115349;28;20031;-71
2023/06/26 06:43:22;;;;;;;0.20;0.20;;;23.40;99.90;;;;;;5115240;28;20039;-71
2023/06/26 06:45:48;;;;;;;0.30;0.30;;;23.30;99.90;;;;;;5115536;28;20229;-71
2023/06/26 06:48:14;;;;;;;0.20;0.20;;;23.20;99.90;;;;;;5115290;28;20043;-71
2023/06/26 06:50:39;;;;;;;0.30;0.30;;;23.10;99.90;;;;;;5115089;28;20040;-71
2023/06/26 06:53:05;;;;;;;0.23;0.23;;;23.10;99.90;;;;;;5115094;28;20100;-71
2023/06/26 06:55:30;;;;;;;0.40;0.30;;;23.10;99.90;;;;;;5114945;28;20042;-72
2023/06/26 06:57:56;;;;;;;0.50;0.50;;;23.00;99.90;;;;;;5115060;28;20027;-71
2023/06/26 07:00:22;;;;;;;0.30;0.30;;;23.00;99.90;;;;;;5115292;28;20051;-72
2023/06/26 07:02:48;;;;;;;0.40;0.30;;;23.00;99.90;;;;;;5114989;28;20042;-72
2023/06/26 07:05:13;;;;;;;0.20;0.20;;;23.10;99.90;;;;;;5114706;28;20071;-71
2023/06/26 07:07:39;;;;;;;0.30;0.30;;;23.20;99.90;;;;;;5114562;28;20043;-72
2023/06/26 07:10:10;;;;;;;0.30;0.30;;;23.30;99.90;;;;;;5114392;28;20371;-71
2023/06/26 07:12:36;;;;;;;0.93;0.93;;;23.40;99.90;;;;;;5114677;28;20047;-72
2023/06/26 07:15:04;;;;;;;0.20;0.20;;;23.50;99.90;;;;;;5114986;28;20046;-71
2023/06/26 07:17:30;;;;;;;0.20;0.20;;;23.50;99.90;;;;;;5114604;28;20118;-73
2023/06/26 07:19:56;;;;;;;0.30;0.30;;;23.50;99.90;;;;;;5114567;28;20036;-72
2023/06/26 07:22:22;;;;;;;0.20;0.20;;;23.70;99.90;;;;;;5114267;28;20044;-72
2023/06/26 07:24:48;;;;;;;0.30;0.30;;;23.80;99.90;;;;;;5114611;28;20116;-72
2023/06/26 07:27:20;;;;;;;0.20;0.20;;;24.00;99.90;;;;;;5114771;28;20420;-71
2023/06/26 07:29:45;;;;;;;0.20;0.20;;;24.10;99.90;;;;;;5114835;28;20095;-71
2023/06/26 07:32:11;;;;;;;0.40;0.30;;;24.10;99.90;;;;;;5114404;28;20122;-72
2023/06/26 07:34:37;;;;;;;0.20;0.20;;;24.10;99.90;;;;;;5114318;28;20281;-72
2023/06/26 07:37:03;;;;;;;0.20;0.20;;;24.10;99.90;;;;;;5114288;28;20118;-71
2023/06/26 07:39:29;;;;;;;0.30;0.30;;;24.20;99.90;;;;;;5114288;28;20142;-71
2023/06/26 07:41:55;;;;;;;0.30;0.30;;;24.20;99.90;;;;;;5114298;28;20118;-71
2023/06/26 07:44:22;;;;;;;0.30;0.30;;;24.30;99.90;;;;;;5114212;28;20684;-71
2023/06/26 07:46:47;;;;;;;0.20;0.20;;;24.40;99.90;;;;;;5114351;28;20371;-72
2023/06/26 07:49:13;;;;;;;0.30;0.30;;;24.50;99.90;;;;;;5114087;28;20032;-71
2023/06/26 07:51:39;;;;;;;0.20;0.20;;;24.60;99.90;;;;;;5114084;28;20051;-72
2023/06/26 07:54:05;;;;;;;0.43;0.43;;;24.70;99.90;;;;;;5112995;28;20147;-71
2023/06/26 07:56:30;;;;;;;0.20;0.20;;;24.70;99.90;;;;;;5114151;28;20087;-72
2023/06/26 07:58:57;;;;;;;0.30;0.30;;;24.80;99.90;;;;;;5114004;28;20031;-72
2023/06/26 08:01:23;;;;;;;0.55;0.55;;;24.70;99.90;;;;;;5114055;28;20118;-71
2023/06/26 08:03:49;;;;;;;;;;;24.80;99.90;;;;;;5114379;28;20405;-72
2023/06/26 08:06:15;;;;;;;0.30;0.30;;;24.90;99.90;;;;;;5113621;28;19961;-72
2023/06/26 08:08:41;;;;;;;0.30;0.30;;;25.00;99.90;;;;;;5113819;28;20035;-71
2023/06/26 08:11:06;;;;;;;1.87;0.50;;;25.00;99.90;;;;;;5114149;28;20083;-71
2023/06/26 08:13:32;;;;;;;0.43;0.40;;;25.20;99.90;;;;;;5113906;28;20368;-71
2023/06/26 08:15:57;;;;;;;0.30;0.30;;;25.40;99.90;;;;;;5113821;28;20036;-72
2023/06/26 08:18:23;;;;;;;0.30;0.30;;;25.50;99.90;;;;;;5113897;28;20043;-71
2023/06/26 08:20:49;;;;;;;0.40;0.40;;;25.50;99.90;;;;;;5117069;28;20047;-71
2023/06/26 08:23:14;;;;;;;0.30;0.30;;;25.60;99.90;;;;;;5117826;28;20039;-72
2023/06/26 08:25:40;;;;;;;0.30;0.30;;;25.60;99.90;;;;;;5117897;28;20031;-72
2023/06/26 08:28:05;;;;;;;0.30;0.30;;;25.70;99.90;;;;;;5117840;28;20042;-71
2023/06/26 08:30:32;;;;;;;0.30;0.30;;;25.60;99.90;;;;;;5117874;28;20044;-72
2023/06/26 08:32:58;;;;;;;;;;;25.60;99.90;;;;;;5118383;28;20122;-71
2023/06/26 08:35:23;;;;;;;0.40;0.40;;;25.50;99.90;;;;;;5117783;28;20006;-72
2023/06/26 08:37:49;;;;;;;0.40;0.40;;;25.40;99.90;;;;;;5117415;28;20035;-71
2023/06/26 08:40:18;;;;;;;0.30;0.30;;;25.40;99.90;;;;;;5118102;28;20111;-72
2023/06/26 08:42:44;;;;;;;0.30;0.30;;;25.30;99.90;;;;;;5117663;28;20089;-72
2023/06/26 08:45:10;;;;;;;0.30;0.30;;;25.00;99.90;;;;;;5117894;28;20118;-72
2023/06/26 08:47:37;;;;;;;0.30;0.30;;;24.90;99.90;;;;;;5117631;28;20049;-72
2023/06/26 08:50:15;;;;;;;0.30;0.30;;;24.70;99.90;;;;;;5117506;28;20036;-71
2023/06/26 08:52:50;;;;;;;0.30;0.30;;;24.60;99.90;;;;;;5117910;28;20379;-72
2023/06/26 08:55:18;;;;;;;0.50;0.50;;;24.50;99.90;;;;;;5118029;28;20451;-71
2023/06/26 08:57:44;;;;;;;0.30;0.30;;;24.60;99.90;;;;;;5117365;28;20035;-72
2023/06/26 09:00:10;;;;;;;0.30;0.30;;;25.00;99.90;;;;;;5117412;27;20424;-72
2023/06/26 09:02:36;;;;;;;0.22;0.22;;;25.10;99.90;;;;;;5117444;28;20061;-71
2023/06/26 09:05:03;;;;;;;0.50;0.50;;;24.90;99.90;;;;;;5117181;28;20490;-72
2023/06/26 09:07:28;;;;;;;;;;;24.80;99.90;;;;;;5117571;28;20035;-72
2023/06/26 09:09:54;;;;;;;0.30;0.30;;;24.70;99.90;;;;;;5117035;28;19919;-72
2023/06/26 09:12:21;;;;;;;0.30;0.30;;;24.70;99.90;;;;;;5117120;28;20161;-72
2023/06/26 09:14:47;;;;;;;;;;;24.70;99.90;;;;;;5117444;28;20092;-71
2023/06/26 09:17:13;;;;;;;0.30;0.30;;;24.80;99.90;;;;;;5117060;28;19920;-72
2023/06/26 09:19:39;;;;;;;0.25;0.25;;;24.90;99.90;;;;;;5116841;28;20494;-72
2023/06/26 09:22:10;;;;;;;0.30;0.30;;;25.20;99.90;;;;;;5116947;28;20044;-71
2023/06/26 09:24:36;;;;;;;0.30;0.30;;;25.10;99.90;;;;;;5117397;28;20036;-71
2023/06/26 09:27:02;;;;;;;0.50;0.50;;;25.20;99.90;;;;;;5116812;27;20043;-71
2023/06/26 09:29:29;;;;;;;0.30;0.30;;;25.30;99.90;;;;;;5116649;28;20464;-71
2023/06/26 09:31:56;;;;;;;0.30;0.30;;;25.30;99.90;;;;;;5115970;27;20035;-70
2023/06/26 09:34:22;;;;;;;0.30;0.30;;;25.10;99.90;;;;;;5116520;28;20047;-72
2023/06/26 09:36:49;;;;;;;0.40;0.40;;;24.90;99.90;;;;;;5116603;28;20168;-72
2023/06/26 09:39:15;;;;;;;0.40;0.40;;;24.80;99.90;;;;;;5116621;28;20039;-71
2023/06/26 09:41:44;;;;;;;0.30;0.30;;;24.90;99.90;;;;;;5116564;28;20092;-72
2023/06/26 09:44:13;;;;;;;0.40;0.40;;;25.10;99.90;;;;;;5116212;28;20054;-71
2023/06/26 09:46:38;;;;;;;0.30;0.30;;;25.30;99.90;;;;;;5116350;27;20042;-71
2023/06/26 09:49:10;;;;;;;2.53;0.97;;;25.40;99.90;;;;;;5116264;28;20047;-72
2023/06/26 09:51:38;;;;;;;0.30;0.30;;;25.40;99.90;;;;;;5116363;28;20043;-72
2023/06/26 09:54:05;;;;;;;0.30;0.30;;;25.20;99.90;;;;;;5116313;28;20044;-72
2023/06/26 09:56:31;;;;;;;0.60;0.60;;;25.00;99.90;;;;;;5116191;28;20040;-72
2023/06/26 09:58:59;;;;;;;0.30;0.30;;;24.90;99.90;;;;;;5116232;28;20040;-71
2023/06/26 10:01:25;;;;;;;0.30;0.30;;;25.10;99.90;;;;;;5116048;28;20368;-73
2023/06/26 10:03:51;;;;;;;0.40;0.40;;;25.50;99.90;;;;;;5116034;27;20057;-72
2023/06/26 10:06:22;;;;;;;0.30;0.30;;;25.70;99.90;;;;;;5116448;28;20516;-71
2023/06/26 10:08:49;;;;;;;0.20;0.20;;;25.60;99.90;;;;;;5115943;28;20097;-71
2023/06/26 10:11:20;;;;;;;0.43;0.43;;;25.20;99.90;;;;;;5115800;28;20085;-72
2023/06/26 10:13:50;;;;;;;0.25;0.25;;;25.10;99.90;;;;;;5115654;28;20035;-72
2023/06/26 10:16:23;;;;;;;0.20;0.20;;;25.20;99.90;;;;;;5115894;28;20065;-72
2023/06/26 10:18:52;;;;;;;0.20;0.20;;;25.50;99.90;;;;;;5115898;27;20050;-72
2023/06/26 10:21:21;;;;;;;0.20;0.20;;;25.70;99.90;;;;;;5115840;28;20471;-71
2023/06/26 10:23:47;;;;;;;0.25;0.25;;;25.50;99.90;;;;;;5115667;28;20356;-70
2023/06/26 10:26:14;;;;;;;;;;;25.40;99.90;;;;;;5116079;28;20383;-71
2023/06/26 10:28:42;;;;;;;0.20;0.20;;;25.30;99.90;;;;;;5115440;28;19916;-72
2023/06/26 10:31:10;;;;;;;0.40;0.40;;;25.40;99.90;;;;;;5115536;28;20074;-71
2023/06/26 10:33:36;;;;;;;0.35;0.30;;;25.70;99.90;;;;;;5115493;28;20046;-70
2023/06/26 10:36:26;;;;;;;0.28;0.28;;;25.60;99.90;;;;;;5115150;28;20467;-71
2023/06/26 10:38:55;;;;;;;0.22;0.22;;;25.30;99.90;;;;;;5115546;28;20058;-71
2023/06/26 10:41:24;;;;;;;0.75;0.60;;;25.30;99.90;;;;;;5115030;28;20081;-72
2023/06/26 10:44:11;;;;;;;0.20;0.20;;;25.20;99.90;;;;;;5114686;28;20383;-72
2023/06/26 10:47:06;;;;;;;0.30;0.30;;;25.20;99.90;;;;;;5115391;28;20081;-71
2023/06/26 10:49:31;;;;;;;0.55;0.55;;;25.30;99.90;;;;;;5101845;28;20051;-72
2023/06/26 10:52:01;;;;;;;0.30;0.30;;;25.60;99.90;;;;;;5115233;28;20391;-71
2023/06/26 10:54:31;;;;;;;0.20;0.20;;;25.70;99.70;;;;;;5115436;27;20617;-71
2023/06/26 10:56:57;;;;;;;0.30;0.30;;;25.80;98.30;;;;;;5114727;28;20100;-71
2023/06/26 10:59:26;;;;;;;0.30;0.30;;;26.00;97.20;;;;;;5114985;28;20031;-71
2023/06/26 11:01:57;;;;;;;0.40;0.40;;;26.10;97.00;;;;;;5114965;28;20336;-71
2023/06/26 11:04:46;;;;;;;0.30;0.30;;;26.40;97.70;;;;;;5152858;27;20103;-73
2023/06/26 11:07:18;;;;;;;0.30;0.30;;;26.30;97.70;;;;;;5152687;27;20038;-73
2023/06/26 11:10:10;;;;;;;0.30;0.30;;;26.50;97.50;;;;;;5152520;27;20030;-73
2023/06/26 11:12:47;;;;;;;0.30;0.30;;;26.40;96.90;;;;;;5152571;27;20035;-73
2023/06/26 11:15:18;;;;;;;0.30;0.30;;;26.00;96.00;;;;;;5152349;27;20043;-73
2023/06/26 11:17:44;;;;;;;0.30;0.30;;;26.30;96.30;;;;;;5152402;27;20050;-73
2023/06/26 11:20:12;;;;;;;0.20;0.20;;;26.30;95.50;;;;;;5152408;27;20035;-72
2023/06/26 11:22:40;;;;;;;0.25;0.25;;;26.30;95.60;;;;;;5152258;27;20145;-72
2023/06/26 11:25:07;;;;;;;0.20;0.20;;;26.60;96.20;;;;;;5152144;27;20108;-73
2023/06/26 11:27:39;;;;;;;0.20;0.20;;;26.70;97.00;;;;;;5152234;27;20035;-72
2023/06/26 11:30:06;;;;;;;0.30;0.30;;;26.60;97.30;;;;;;5133728;27;20047;-73
2023/06/26 11:32:32;;;;;;;0.20;0.20;;;26.70;97.40;;;;;;5152286;27;20043;-73
2023/06/26 11:34:59;;;;;;;0.30;0.30;;;26.90;96.40;;;;;;5152050;27;20039;-73
2023/06/26 11:37:25;;;;;;;0.20;0.20;;;26.80;95.90;;;;;;5151994;27;20038;-73
2023/06/26 11:39:51;;;;;;;0.20;0.20;;;26.80;92.80;;;;;;5151860;27;20091;-72
2023/06/26 11:42:20;;;;;;;0.20;0.20;;;26.90;93.70;;;;;;5151834;27;20070;-72
2023/06/26 11:44:47;;;;;;;0.30;0.30;;;26.90;94.50;;;;;;5151799;27;20030;-72
2023/06/26 11:47:17;;;;;;;0.88;0.30;;;26.70;95.10;;;;;;5151761;27;20050;-72
2023/06/26 11:49:44;;;;;;;0.20;0.20;;;26.40;95.40;;;;;;5151507;27;20045;-73
2023/06/26 11:52:10;;;;;;;0.30;0.30;;;26.10;95.70;;;;;;5151658;27;20043;-73
2023/06/26 11:54:36;;;;;;;0.23;0.23;;;25.90;95.80;;;;;;5151737;27;20034;-72
2023/06/26 11:57:01;;;;;;;0.37;0.37;;;25.70;93.50;;;;;;5152181;27;20505;-73
2023/06/26 11:59:37;;;;;;;0.40;0.40;;;25.90;94.20;;;;;;5151591;27;20127;-73
2023/06/26 12:02:10;;;;;;;1.05;1.05;;;26.20;94.90;;;;;;5151336;27;20376;-72
2023/06/26 12:04:38;;;;;;;0.30;0.30;;;26.40;95.30;;;;;;5151467;27;20035;-73
2023/06/26 12:07:07;;;;;;;0.20;0.20;;;26.50;95.00;;;;;;5151764;27;20546;-72
2023/06/26 12:09:34;;;;;;;0.30;0.30;;;26.30;94.90;;;;;;5151176;27;20473;-73
2023/06/26 12:12:00;;;;;;;0.65;0.52;;;26.00;94.10;;;;;;5151610;27;20130;-72
2023/06/26 12:14:29;;;;;;;0.20;0.20;;;25.90;94.20;;;;;;5145648;27;20039;-72
2023/06/26 12:16:55;;;;;;;0.20;0.20;;;25.90;94.30;;;;;;5137467;27;20114;-73
2023/06/26 12:19:27;;;;;;;0.20;0.20;;;26.10;93.90;;;;;;5153375;27;20404;-72
2023/06/26 12:21:53;;;;;;;0.30;0.30;;;26.10;94.70;;;;;;5137951;27;20039;-73
2023/06/26 12:24:24;;;;;;;0.20;0.20;;;26.00;95.30;;;;;;5137550;27;20081;-72
2023/06/26 12:26:53;;;;;;;0.20;0.20;;;25.70;95.90;;;;;;5137344;27;20043;-73
2023/06/26 12:29:20;;;;;;;0.30;0.30;;;25.70;96.20;;;;;;5137135;27;20054;-73
2023/06/26 12:31:50;;;;;;;0.20;0.20;;;26.00;96.20;;;;;;5137144;27;20050;-72
2023/06/26 12:34:27;;;;;;;0.30;0.30;;;26.00;94.80;;;;;;5118968;27;20051;-73
2023/06/26 12:36:53;;;;;;;0.20;0.20;;;25.80;94.90;;;;;;5137640;27;20051;-72
2023/06/26 12:39:21;;;;;;;0.20;0.20;;;25.60;94.80;;;;;;5137044;27;20031;-73
2023/06/26 12:41:54;;;;;;;0.20;0.20;;;25.40;95.00;;;;;;5136998;27;20454;-73
2023/06/26 12:44:28;;;;;;;0.20;0.20;;;25.40;94.60;;;;;;5136643;27;20035;-72
2023/06/26 12:46:58;;;;;;;0.20;0.20;;;25.50;95.20;;;;;;5136787;27;20084;-73
2023/06/26 12:49:50;;;;;;;0.20;0.20;;;25.80;94.50;;;;;;5136848;27;20039;-70
2023/06/26 12:52:19;;;;;;;0.20;0.20;;;26.10;94.70;;;;;;5132968;27;20051;-71